sensor_id;sensor_type;location;lat;lon;timestamp;P1;durP1;ratioP1;P2;durP2;ratioP2
2896;SDS011;1458;49.728;9.228;2023-02-01T00:00:00;0.30;;;0.30;;
2896;SDS011;1458;49.728;9.228;2023-02-01T00:02:30;0.40;;;0.40;;
2896;SDS011;1458;49.728;9.228;2023-02-01T00:04:59;0.40;;;0.40;;
2896;SDS011;1458;49.728;9.228;2023-02-01T00:07:26;0.40;;;0.40;;
2896;SDS011;1458;49.728;9.228;2023-02-01T00:09:53;0.40;;;0.40;;
2896;SDS011;1458;49.728;9.228;2023-02-01T00:12:21;0.40;;;0.40;;
2896;SDS011;1458;49.728;9.228;2023-02-01T00:14:48;0.40;;;0.40;;
2896;SDS011;1458;49.728;9.228;2023-02-01T00:17:16;0.40;;;0.40;;
2896;SDS011;1458;49.728;9.228;2023-02-01T00:19:43;0.40;;;0.40;;
2896;SDS011;1458;49.728;9.228;2023-02-01T00:22:12;0.40;;;0.40;;
2896;SDS011;1458;49.728;9.228;2023-02-01T00:24:39;0.30;;;0.30;;
2896;SDS011;1458;49.728;9.228;2023-02-01T00:27:07;0.50;;;0.50;;
2896;SDS011;1458;49.728;9.228;2023-02-01T00:29:34;0.40;;;0.40;;
2896;SDS011;1458;49.728;9.228;2023-02-01T00:32:03;0.30;;;0.30;;
2896;SDS011;1458;49.728;9.228;2023-02-01T00:34:30;0.40;;;0.40;;
2896;SDS011;1458;49.728;9.228;2023-02-01T00:36:58;0.40;;;0.40;;
2896;SDS011;1458;49.728;9.228;2023-02-01T00:39:26;0.30;;;0.30;;
2896;SDS011;1458;49.728;9.228;2023-02-01T00:41:54;0.40;;;0.40;;
2896;SDS011;1458;49.728;9.228;2023-02-01T00:44:21;0.40;;;0.40;;
2896;SDS011;1458;49.728;9.228;2023-02-01T00:46:48;0.40;;;0.40;;
2896;SDS011;1458;49.728;9.228;2023-02-01T00:49:16;0.40;;;0.40;;
2896;SDS011;1458;49.728;9.228;2023-02-01T00:51:43;0.43;;;0.43;;
2896;SDS011;1458;49.728;9.228;2023-02-01T00:54:11;0.40;;;0.40;;
2896;SDS011;1458;49.728;9.228;2023-02-01T00:56:40;0.40;;;0.40;;
2896;SDS011;1458;49.728;9.228;2023-02-01T00:59:07;0.40;;;0.40;;
2896;SDS011;1458;49.728;9.228;2023-02-01T01:01:37;0.40;;;0.40;;
2896;SDS011;1458;49.728;9.228;2023-02-01T01:04:05;0.30;;;0.30;;
2896;SDS011;1458;49.728;9.228;2023-02-01T01:06:32;0.40;;;0.40;;
2896;SDS011;1458;49.728;9.228;2023-02-01T01:09:03;0.40;;;0.40;;
2896;SDS011;1458;49.728;9.228;2023-02-01T01:11:33;0.40;;;0.40;;
2896;SDS011;1458;49.728;9.228;2023-02-01T01:14:06;0.40;;;0.40;;
2896;SDS011;1458;49.728;9.228;2023-02-01T01:16:36;0.30;;;0.30;;
2896;SDS011;1458;49.728;9.228;2023-02-01T01:19:03;0.30;;;0.30;;
2896;SDS011;1458;49.728;9.228;2023-02-01T01:21:31;0.40;;;0.40;;
2896;SDS011;1458;49.728;9.228;2023-02-01T01:23:58;0.40;;;0.40;;
2896;SDS011;1458;49.728;9.228;2023-02-01T01:26:26;0.40;;;0.40;;
2896;SDS011;1458;49.728;9.228;2023-02-01T01:28:55;0.40;;;0.40;;
2896;SDS011;1458;49.728;9.228;2023-02-01T01:31:24;0.40;;;0.40;;
2896;SDS011;1458;49.728;9.228;2023-02-01T01:33:53;0.43;;;0.43;;
2896;SDS011;1458;49.728;9.228;2023-02-01T01:56:56;0.40;;;0.40;;
2896;SDS011;1458;49.728;9.228;2023-02-01T01:59:27;0.40;;;0.40;;
2896;SDS011;1458;49.728;9.228;2023-02-01T02:01:56;0.40;;;0.40;;
2896;SDS011;1458;49.728;9.228;2023-02-01T02:04:23;0.40;;;0.40;;
2896;SDS011;1458;49.728;9.228;2023-02-01T02:06:52;0.40;;;0.40;;
2896;SDS011;1458;49.728;9.228;2023-02-01T02:10:55;0.40;;;0.40;;
2896;SDS011;1458;49.728;9.228;2023-02-01T02:13:27;0.40;;;0.40;;
2896;SDS011;1458;49.728;9.228;2023-02-01T02:20:39;0.40;;;0.40;;
2896;SDS011;1458;49.728;9.228;2023-02-01T02:26:29;0.40;;;0.40;;
2896;SDS011;1458;49.728;9.228;2023-02-01T02:29:29;0.30;;;0.30;;
2896;SDS011;1458;49.728;9.228;2023-02-01T02:36:07;0.30;;;0.30;;
2896;SDS011;1458;49.728;9.228;2023-02-01T02:38:45;0.40;;;0.40;;
2896;SDS011;1458;49.728;9.228;2023-02-01T02:41:19;0.40;;;0.40;;
2896;SDS011;1458;49.728;9.228;2023-02-01T02:44:12;0.40;;;0.40;;
2896;SDS011;1458;49.728;9.228;2023-02-01T02:47:03;0.40;;;0.40;;
2896;SDS011;1458;49.728;9.228;2023-02-01T02:49:56;0.40;;;0.40;;
2896;SDS011;1458;49.728;9.228;2023-02-01T02:52:50;0.40;;;0.40;;
2896;SDS011;1458;49.728;9.228;2023-02-01T02:55:42;0.40;;;0.40;;
2896;SDS011;1458;49.728;9.228;2023-02-01T02:58:11;0.30;;;0.30;;
2896;SDS011;1458;49.728;9.228;2023-02-01T03:00:59;0.37;;;0.37;;
2896;SDS011;1458;49.728;9.228;2023-02-01T03:03:45;0.40;;;0.40;;
2896;SDS011;1458;49.728;9.228;2023-02-01T03:06:38;0.30;;;0.30;;
2896;SDS011;1458;49.728;9.228;2023-02-01T03:09:08;0.30;;;0.30;;
2896;SDS011;1458;49.728;9.228;2023-02-01T03:11:42;0.40;;;0.40;;
2896;SDS011;1458;49.728;9.228;2023-02-01T03:14:31;0.30;;;0.30;;
2896;SDS011;1458;49.728;9.228;2023-02-01T03:17:03;0.40;;;0.40;;
2896;SDS011;1458;49.728;9.228;2023-02-01T03:19:37;0.40;;;0.40;;
2896;SDS011;1458;49.728;9.228;2023-02-01T03:22:15;0.30;;;0.30;;
2896;SDS011;1458;49.728;9.228;2023-02-01T03:24:47;0.30;;;0.30;;
2896;SDS011;1458;49.728;9.228;2023-02-01T03:27:18;0.40;;;0.40;;
2896;SDS011;1458;49.728;9.228;2023-02-01T03:29:54;0.30;;;0.30;;
2896;SDS011;1458;49.728;9.228;2023-02-01T03:32:27;0.30;;;0.30;;
2896;SDS011;1458;49.728;9.228;2023-02-01T03:35:16;0.30;;;0.30;;
2896;SDS011;1458;49.728;9.228;2023-02-01T03:37:45;0.30;;;0.30;;
2896;SDS011;1458;49.728;9.228;2023-02-01T03:40:14;0.40;;;0.40;;
2896;SDS011;1458;49.728;9.228;2023-02-01T03:42:45;0.40;;;0.40;;
2896;SDS011;1458;49.728;9.228;2023-02-01T03:45:20;0.40;;;0.40;;
2896;SDS011;1458;49.728;9.228;2023-02-01T03:47:54;0.30;;;0.30;;
2896;SDS011;1458;49.728;9.228;2023-02-01T03:50:26;0.40;;;0.40;;
2896;SDS011;1458;49.728;9.228;2023-02-01T03:52:58;0.40;;;0.40;;
2896;SDS011;1458;49.728;9.228;2023-02-01T03:55:29;0.40;;;0.40;;
2896;SDS011;1458;49.728;9.228;2023-02-01T03:57:59;0.30;;;0.30;;
2896;SDS011;1458;49.728;9.228;2023-02-01T04:00:33;0.40;;;0.40;;
2896;SDS011;1458;49.728;9.228;2023-02-01T04:03:00;0.30;;;0.30;;
2896;SDS011;1458;49.728;9.228;2023-02-01T04:05:30;0.40;;;0.40;;
2896;SDS011;1458;49.728;9.228;2023-02-01T04:08:03;0.30;;;0.30;;
2896;SDS011;1458;49.728;9.228;2023-02-01T04:10:31;0.40;;;0.40;;
2896;SDS011;1458;49.728;9.228;2023-02-01T04:12:58;0.30;;;0.30;;
2896;SDS011;1458;49.728;9.228;2023-02-01T04:15:26;0.33;;;0.33;;
2896;SDS011;1458;49.728;9.228;2023-02-01T04:17:53;0.40;;;0.40;;
2896;SDS011;1458;49.728;9.228;2023-02-01T04:20:20;0.30;;;0.30;;
2896;SDS011;1458;49.728;9.228;2023-02-01T04:22:48;0.30;;;0.30;;
2896;SDS011;1458;49.728;9.228;2023-02-01T04:25:16;0.30;;;0.30;;
2896;SDS011;1458;49.728;9.228;2023-02-01T04:27:45;0.40;;;0.40;;
2896;SDS011;1458;49.728;9.228;2023-02-01T04:30:13;0.40;;;0.40;;
2896;SDS011;1458;49.728;9.228;2023-02-01T04:32:41;0.30;;;0.30;;
2896;SDS011;1458;49.728;9.228;2023-02-01T04:35:08;0.40;;;0.40;;
2896;SDS011;1458;49.728;9.228;2023-02-01T04:37:37;0.30;;;0.30;;
2896;SDS011;1458;49.728;9.228;2023-02-01T04:40:04;0.40;;;0.40;;
2896;SDS011;1458;49.728;9.228;2023-02-01T04:42:34;0.30;;;0.30;;
2896;SDS011;1458;49.728;9.228;2023-02-01T04:45:02;0.30;;;0.30;;
2896;SDS011;1458;49.728;9.228;2023-02-01T04:47:30;0.47;;;0.47;;
2896;SDS011;1458;49.728;9.228;2023-02-01T04:49:58;0.30;;;0.30;;
2896;SDS011;1458;49.728;9.228;2023-02-01T04:52:25;0.30;;;0.30;;
2896;SDS011;1458;49.728;9.228;2023-02-01T04:54:53;0.50;;;0.50;;
2896;SDS011;1458;49.728;9.228;2023-02-01T04:57:22;0.30;;;0.30;;
2896;SDS011;1458;49.728;9.228;2023-02-01T04:59:51;0.30;;;0.30;;
2896;SDS011;1458;49.728;9.228;2023-02-01T05:02:19;0.30;;;0.30;;
2896;SDS011;1458;49.728;9.228;2023-02-01T05:04:46;0.30;;;0.30;;
2896;SDS011;1458;49.728;9.228;2023-02-01T05:07:13;0.30;;;0.30;;
2896;SDS011;1458;49.728;9.228;2023-02-01T05:09:41;0.30;;;0.30;;
2896;SDS011;1458;49.728;9.228;2023-02-01T05:12:08;0.30;;;0.30;;
2896;SDS011;1458;49.728;9.228;2023-02-01T05:14:55;0.30;;;0.30;;
2896;SDS011;1458;49.728;9.228;2023-02-01T05:17:22;0.40;;;0.40;;
2896;SDS011;1458;49.728;9.228;2023-02-01T05:19:50;0.40;;;0.40;;
2896;SDS011;1458;49.728;9.228;2023-02-01T05:22:17;0.30;;;0.30;;
2896;SDS011;1458;49.728;9.228;2023-02-01T05:24:44;0.30;;;0.30;;
2896;SDS011;1458;49.728;9.228;2023-02-01T05:27:12;0.50;;;0.50;;
2896;SDS011;1458;49.728;9.228;2023-02-01T05:29:39;0.30;;;0.30;;
2896;SDS011;1458;49.728;9.228;2023-02-01T05:32:09;0.30;;;0.30;;
2896;SDS011;1458;49.728;9.228;2023-02-01T05:34:37;0.33;;;0.33;;
2896;SDS011;1458;49.728;9.228;2023-02-01T05:37:04;0.43;;;0.43;;
2896;SDS011;1458;49.728;9.228;2023-02-01T05:39:31;0.40;;;0.40;;
2896;SDS011;1458;49.728;9.228;2023-02-01T05:41:59;0.40;;;0.40;;
2896;SDS011;1458;49.728;9.228;2023-02-01T05:44:27;0.30;;;0.30;;
2896;SDS011;1458;49.728;9.228;2023-02-01T05:46:54;0.40;;;0.40;;
2896;SDS011;1458;49.728;9.228;2023-02-01T05:49:23;0.33;;;0.33;;
2896;SDS011;1458;49.728;9.228;2023-02-01T05:51:50;0.30;;;0.30;;
2896;SDS011;1458;49.728;9.228;2023-02-01T05:54:17;0.30;;;0.30;;
2896;SDS011;1458;49.728;9.228;2023-02-01T05:56:45;0.30;;;0.30;;
2896;SDS011;1458;49.728;9.228;2023-02-01T05:59:12;0.30;;;0.30;;
2896;SDS011;1458;49.728;9.228;2023-02-01T06:01:39;0.30;;;0.30;;
2896;SDS011;1458;49.728;9.228;2023-02-01T06:04:07;0.30;;;0.30;;
2896;SDS011;1458;49.728;9.228;2023-02-01T06:06:36;0.40;;;0.40;;
2896;SDS011;1458;49.728;9.228;2023-02-01T06:09:03;0.30;;;0.30;;
2896;SDS011;1458;49.728;9.228;2023-02-01T06:11:31;0.40;;;0.40;;
2896;SDS011;1458;49.728;9.228;2023-02-01T06:13:58;0.40;;;0.40;;
2896;SDS011;1458;49.728;9.228;2023-02-01T06:16:26;0.30;;;0.30;;
2896;SDS011;1458;49.728;9.228;2023-02-01T06:18:53;0.50;;;0.50;;
2896;SDS011;1458;49.728;9.228;2023-02-01T06:21:21;0.30;;;0.30;;
2896;SDS011;1458;49.728;9.228;2023-02-01T06:23:51;0.40;;;0.40;;
2896;SDS011;1458;49.728;9.228;2023-02-01T06:26:19;0.30;;;0.30;;
2896;SDS011;1458;49.728;9.228;2023-02-01T06:28:47;0.30;;;0.30;;
2896;SDS011;1458;49.728;9.228;2023-02-01T06:31:14;0.40;;;0.40;;
2896;SDS011;1458;49.728;9.228;2023-02-01T06:33:42;0.30;;;0.30;;
2896;SDS011;1458;49.728;9.228;2023-02-01T06:36:11;0.30;;;0.30;;
2896;SDS011;1458;49.728;9.228;2023-02-01T06:38:38;0.40;;;0.40;;
2896;SDS011;1458;49.728;9.228;2023-02-01T06:41:08;0.40;;;0.40;;
2896;SDS011;1458;49.728;9.228;2023-02-01T06:43:36;0.40;;;0.40;;
2896;SDS011;1458;49.728;9.228;2023-02-01T06:46:04;0.30;;;0.30;;
2896;SDS011;1458;49.728;9.228;2023-02-01T06:48:34;0.30;;;0.30;;
2896;SDS011;1458;49.728;9.228;2023-02-01T06:51:01;0.40;;;0.40;;
2896;SDS011;1458;49.728;9.228;2023-02-01T06:53:29;0.30;;;0.30;;
2896;SDS011;1458;49.728;9.228;2023-02-01T06:55:59;0.40;;;0.40;;
2896;SDS011;1458;49.728;9.228;2023-02-01T06:58:30;0.40;;;0.40;;
2896;SDS011;1458;49.728;9.228;2023-02-01T07:01:00;0.40;;;0.40;;
2896;SDS011;1458;49.728;9.228;2023-02-01T07:03:32;0.40;;;0.40;;
2896;SDS011;1458;49.728;9.228;2023-02-01T07:06:00;0.40;;;0.40;;
2896;SDS011;1458;49.728;9.228;2023-02-01T07:08:27;0.40;;;0.40;;
2896;SDS011;1458;49.728;9.228;2023-02-01T07:10:55;0.40;;;0.40;;
2896;SDS011;1458;49.728;9.228;2023-02-01T07:13:23;0.30;;;0.30;;
2896;SDS011;1458;49.728;9.228;2023-02-01T07:15:52;0.30;;;0.30;;
2896;SDS011;1458;49.728;9.228;2023-02-01T07:18:19;0.40;;;0.40;;
2896;SDS011;1458;49.728;9.228;2023-02-01T07:20:50;0.33;;;0.33;;
2896;SDS011;1458;49.728;9.228;2023-02-01T07:23:18;0.30;;;0.30;;
2896;SDS011;1458;49.728;9.228;2023-02-01T07:25:45;0.40;;;0.40;;
2896;SDS011;1458;49.728;9.228;2023-02-01T07:28:12;0.40;;;0.40;;
2896;SDS011;1458;49.728;9.228;2023-02-01T07:30:40;0.40;;;0.40;;
2896;SDS011;1458;49.728;9.228;2023-02-01T07:33:09;0.40;;;0.40;;
2896;SDS011;1458;49.728;9.228;2023-02-01T07:35:36;0.30;;;0.30;;
2896;SDS011;1458;49.728;9.228;2023-02-01T07:38:04;0.40;;;0.40;;
2896;SDS011;1458;49.728;9.228;2023-02-01T07:40:31;0.40;;;0.40;;
2896;SDS011;1458;49.728;9.228;2023-02-01T07:42:58;0.40;;;0.40;;
2896;SDS011;1458;49.728;9.228;2023-02-01T07:45:26;0.40;;;0.40;;
2896;SDS011;1458;49.728;9.228;2023-02-01T07:47:53;0.40;;;0.40;;
2896;SDS011;1458;49.728;9.228;2023-02-01T07:50:22;0.40;;;0.40;;
2896;SDS011;1458;49.728;9.228;2023-02-01T07:52:49;0.40;;;0.40;;
2896;SDS011;1458;49.728;9.228;2023-02-01T07:55:18;0.40;;;0.40;;
2896;SDS011;1458;49.728;9.228;2023-02-01T07:57:46;0.40;;;0.40;;
2896;SDS011;1458;49.728;9.228;2023-02-01T08:00:14;0.40;;;0.40;;
2896;SDS011;1458;49.728;9.228;2023-02-01T08:02:59;0.40;;;0.40;;
2896;SDS011;1458;49.728;9.228;2023-02-01T08:05:28;0.40;;;0.40;;
2896;SDS011;1458;49.728;9.228;2023-02-01T08:07:56;0.40;;;0.40;;
2896;SDS011;1458;49.728;9.228;2023-02-01T08:10:23;0.40;;;0.40;;
2896;SDS011;1458;49.728;9.228;2023-02-01T08:12:50;0.37;;;0.37;;
2896;SDS011;1458;49.728;9.228;2023-02-01T08:15:18;0.30;;;0.30;;
2896;SDS011;1458;49.728;9.228;2023-02-01T08:17:46;0.40;;;0.40;;
2896;SDS011;1458;49.728;9.228;2023-02-01T08:20:14;0.40;;;0.40;;
2896;SDS011;1458;49.728;9.228;2023-02-01T08:22:43;0.33;;;0.33;;
2896;SDS011;1458;49.728;9.228;2023-02-01T08:25:10;0.40;;;0.40;;
2896;SDS011;1458;49.728;9.228;2023-02-01T08:27:37;0.40;;;0.40;;
2896;SDS011;1458;49.728;9.228;2023-02-01T08:30:05;0.40;;;0.40;;
2896;SDS011;1458;49.728;9.228;2023-02-01T08:32:34;0.30;;;0.30;;
2896;SDS011;1458;49.728;9.228;2023-02-01T08:35:02;0.30;;;0.30;;
2896;SDS011;1458;49.728;9.228;2023-02-01T08:37:30;0.47;;;0.47;;
2896;SDS011;1458;49.728;9.228;2023-02-01T08:39:59;0.40;;;0.40;;
2896;SDS011;1458;49.728;9.228;2023-02-01T08:42:26;0.40;;;0.40;;
2896;SDS011;1458;49.728;9.228;2023-02-01T08:45:11;0.40;;;0.40;;
2896;SDS011;1458;49.728;9.228;2023-02-01T08:47:38;0.40;;;0.40;;
2896;SDS011;1458;49.728;9.228;2023-02-01T08:50:06;0.30;;;0.30;;
2896;SDS011;1458;49.728;9.228;2023-02-01T08:52:35;0.40;;;0.40;;
2896;SDS011;1458;49.728;9.228;2023-02-01T08:55:04;0.40;;;0.40;;
2896;SDS011;1458;49.728;9.228;2023-02-01T08:57:33;0.40;;;0.40;;
2896;SDS011;1458;49.728;9.228;2023-02-01T09:00:00;0.40;;;0.40;;
2896;SDS011;1458;49.728;9.228;2023-02-01T09:02:30;0.40;;;0.40;;
2896;SDS011;1458;49.728;9.228;2023-02-01T09:04:58;0.40;;;0.40;;
2896;SDS011;1458;49.728;9.228;2023-02-01T09:07:25;0.40;;;0.40;;
2896;SDS011;1458;49.728;9.228;2023-02-01T09:09:52;0.50;;;0.50;;
2896;SDS011;1458;49.728;9.228;2023-02-01T09:12:23;0.40;;;0.40;;
2896;SDS011;1458;49.728;9.228;2023-02-01T09:14:50;0.40;;;0.40;;
2896;SDS011;1458;49.728;9.228;2023-02-01T09:17:17;0.40;;;0.40;;
2896;SDS011;1458;49.728;9.228;2023-02-01T09:19:45;0.40;;;0.40;;
2896;SDS011;1458;49.728;9.228;2023-02-01T09:22:12;0.40;;;0.40;;
2896;SDS011;1458;49.728;9.228;2023-02-01T09:24:41;0.40;;;0.40;;
2896;SDS011;1458;49.728;9.228;2023-02-01T09:27:09;0.50;;;0.50;;
2896;SDS011;1458;49.728;9.228;2023-02-01T09:29:38;0.40;;;0.40;;
2896;SDS011;1458;49.728;9.228;2023-02-01T09:32:05;0.40;;;0.40;;
2896;SDS011;1458;49.728;9.228;2023-02-01T09:34:33;0.40;;;0.40;;
2896;SDS011;1458;49.728;9.228;2023-02-01T09:37:00;0.40;;;0.40;;
2896;SDS011;1458;49.728;9.228;2023-02-01T09:39:28;0.50;;;0.50;;
2896;SDS011;1458;49.728;9.228;2023-02-01T09:44:52;0.50;;;0.50;;
2896;SDS011;1458;49.728;9.228;2023-02-01T09:47:40;0.40;;;0.40;;
2896;SDS011;1458;49.728;9.228;2023-02-01T09:50:15;0.50;;;0.50;;
2896;SDS011;1458;49.728;9.228;2023-02-01T09:52:46;0.43;;;0.43;;
2896;SDS011;1458;49.728;9.228;2023-02-01T09:55:31;0.50;;;0.50;;
2896;SDS011;1458;49.728;9.228;2023-02-01T09:58:05;0.50;;;0.50;;
2896;SDS011;1458;49.728;9.228;2023-02-01T10:00:39;0.50;;;0.50;;
2896;SDS011;1458;49.728;9.228;2023-02-01T10:03:11;0.50;;;0.50;;
2896;SDS011;1458;49.728;9.228;2023-02-01T10:05:53;0.50;;;0.50;;
2896;SDS011;1458;49.728;9.228;2023-02-01T10:08:40;0.60;;;0.60;;
2896;SDS011;1458;49.728;9.228;2023-02-01T10:11:39;0.53;;;0.53;;
2896;SDS011;1458;49.728;9.228;2023-02-01T10:14:28;0.53;;;0.53;;
2896;SDS011;1458;49.728;9.228;2023-02-01T10:17:19;0.60;;;0.60;;
2896;SDS011;1458;49.728;9.228;2023-02-01T10:20:00;0.57;;;0.57;;
2896;SDS011;1458;49.728;9.228;2023-02-01T10:22:38;0.60;;;0.60;;
2896;SDS011;1458;49.728;9.228;2023-02-01T10:25:12;0.60;;;0.60;;
2896;SDS011;1458;49.728;9.228;2023-02-01T10:27:47;0.60;;;0.60;;
2896;SDS011;1458;49.728;9.228;2023-02-01T10:30:19;0.70;;;0.70;;
2896;SDS011;1458;49.728;9.228;2023-02-01T10:32:52;0.80;;;0.80;;
2896;SDS011;1458;49.728;9.228;2023-02-01T10:35:24;0.60;;;0.60;;
2896;SDS011;1458;49.728;9.228;2023-02-01T10:37:55;0.60;;;0.60;;
2896;SDS011;1458;49.728;9.228;2023-02-01T10:40:27;0.70;;;0.70;;
2896;SDS011;1458;49.728;9.228;2023-02-01T10:42:56;0.70;;;0.70;;
2896;SDS011;1458;49.728;9.228;2023-02-01T10:45:27;0.70;;;0.70;;
2896;SDS011;1458;49.728;9.228;2023-02-01T10:47:58;0.80;;;0.80;;
2896;SDS011;1458;49.728;9.228;2023-02-01T10:50:32;0.90;;;0.90;;
2896;SDS011;1458;49.728;9.228;2023-02-01T10:53:05;1.00;;;1.00;;
2896;SDS011;1458;49.728;9.228;2023-02-01T10:55:39;0.90;;;0.90;;
2896;SDS011;1458;49.728;9.228;2023-02-01T10:58:15;1.10;;;1.10;;
2896;SDS011;1458;49.728;9.228;2023-02-01T11:00:45;1.10;;;1.10;;
2896;SDS011;1458;49.728;9.228;2023-02-01T11:03:20;1.20;;;1.20;;
2896;SDS011;1458;49.728;9.228;2023-02-01T11:05:58;1.10;;;1.10;;
2896;SDS011;1458;49.728;9.228;2023-02-01T11:08:27;1.10;;;1.10;;
2896;SDS011;1458;49.728;9.228;2023-02-01T11:10:58;1.00;;;1.00;;
2896;SDS011;1458;49.728;9.228;2023-02-01T11:13:31;0.90;;;0.90;;
2896;SDS011;1458;49.728;9.228;2023-02-01T11:16:04;0.93;;;0.93;;
2896;SDS011;1458;49.728;9.228;2023-02-01T11:18:35;0.90;;;0.90;;
2896;SDS011;1458;49.728;9.228;2023-02-01T11:21:04;0.80;;;0.80;;
2896;SDS011;1458;49.728;9.228;2023-02-01T11:23:36;0.93;;;0.93;;
2896;SDS011;1458;49.728;9.228;2023-02-01T11:26:10;1.10;;;1.10;;
2896;SDS011;1458;49.728;9.228;2023-02-01T11:28:43;1.10;;;1.10;;
2896;SDS011;1458;49.728;9.228;2023-02-01T11:31:18;1.20;;;1.20;;
2896;SDS011;1458;49.728;9.228;2023-02-01T11:33:49;1.20;;;1.20;;
2896;SDS011;1458;49.728;9.228;2023-02-01T11:36:21;1.30;;;1.30;;
2896;SDS011;1458;49.728;9.228;2023-02-01T11:38:54;1.30;;;1.30;;
2896;SDS011;1458;49.728;9.228;2023-02-01T11:41:40;1.30;;;1.30;;
2896;SDS011;1458;49.728;9.228;2023-02-01T11:49:52;1.30;;;1.30;;
2896;SDS011;1458;49.728;9.228;2023-02-01T11:52:29;1.50;;;1.50;;
2896;SDS011;1458;49.728;9.228;2023-02-01T11:55:14;1.20;;;1.20;;
2896;SDS011;1458;49.728;9.228;2023-02-01T11:58:02;1.40;;;1.40;;
2896;SDS011;1458;49.728;9.228;2023-02-01T12:00:59;1.30;;;1.30;;
2896;SDS011;1458;49.728;9.228;2023-02-01T12:03:55;1.20;;;1.20;;
2896;SDS011;1458;49.728;9.228;2023-02-01T12:07:05;1.30;;;1.30;;
2896;SDS011;1458;49.728;9.228;2023-02-01T12:09:46;1.30;;;1.30;;
2896;SDS011;1458;49.728;9.228;2023-02-01T12:12:31;1.30;;;1.30;;
2896;SDS011;1458;49.728;9.228;2023-02-01T12:18:27;1.97;;;1.97;;
2896;SDS011;1458;49.728;9.228;2023-02-01T12:21:31;1.20;;;1.20;;
2896;SDS011;1458;49.728;9.228;2023-02-01T12:27:48;1.40;;;1.40;;
2896;SDS011;1458;49.728;9.228;2023-02-01T12:30:47;1.30;;;1.30;;
2896;SDS011;1458;49.728;9.228;2023-02-01T12:33:32;1.20;;;1.20;;
2896;SDS011;1458;49.728;9.228;2023-02-01T12:36:14;1.20;;;1.20;;
2896;SDS011;1458;49.728;9.228;2023-02-01T12:38:54;1.40;;;1.40;;
2896;SDS011;1458;49.728;9.228;2023-02-01T12:41:42;1.50;;;1.50;;
2896;SDS011;1458;49.728;9.228;2023-02-01T12:44:19;1.40;;;1.40;;
2896;SDS011;1458;49.728;9.228;2023-02-01T12:46:57;1.50;;;1.50;;
2896;SDS011;1458;49.728;9.228;2023-02-01T12:49:29;1.40;;;1.40;;
2896;SDS011;1458;49.728;9.228;2023-02-01T12:52:10;1.40;;;1.40;;
2896;SDS011;1458;49.728;9.228;2023-02-01T12:54:41;1.30;;;1.30;;
2896;SDS011;1458;49.728;9.228;2023-02-01T12:57:17;1.30;;;1.30;;
2896;SDS011;1458;49.728;9.228;2023-02-01T12:59:51;1.40;;;1.40;;
2896;SDS011;1458;49.728;9.228;2023-02-01T13:02:30;1.40;;;1.40;;
2896;SDS011;1458;49.728;9.228;2023-02-01T13:05:11;1.30;;;1.30;;
2896;SDS011;1458;49.728;9.228;2023-02-01T13:07:45;1.40;;;1.40;;
2896;SDS011;1458;49.728;9.228;2023-02-01T13:10:19;1.50;;;1.50;;
2896;SDS011;1458;49.728;9.228;2023-02-01T13:12:56;1.50;;;1.50;;
2896;SDS011;1458;49.728;9.228;2023-02-01T13:15:31;1.70;;;1.70;;
2896;SDS011;1458;49.728;9.228;2023-02-01T13:18:04;1.70;;;1.70;;
2896;SDS011;1458;49.728;9.228;2023-02-01T13:20:37;1.70;;;1.70;;
2896;SDS011;1458;49.728;9.228;2023-02-01T13:23:14;1.70;;;1.70;;
2896;SDS011;1458;49.728;9.228;2023-02-01T13:25:50;1.90;;;1.90;;
2896;SDS011;1458;49.728;9.228;2023-02-01T13:28:22;1.80;;;1.80;;
2896;SDS011;1458;49.728;9.228;2023-02-01T13:30:59;2.00;;;2.00;;
2896;SDS011;1458;49.728;9.228;2023-02-01T13:34:10;2.00;;;2.00;;
2896;SDS011;1458;49.728;9.228;2023-02-01T13:37:15;2.10;;;2.10;;
2896;SDS011;1458;49.728;9.228;2023-02-01T13:40:17;2.10;;;2.10;;
2896;SDS011;1458;49.728;9.228;2023-02-01T13:43:05;2.00;;;2.00;;
2896;SDS011;1458;49.728;9.228;2023-02-01T13:45:43;2.00;;;2.00;;
2896;SDS011;1458;49.728;9.228;2023-02-01T13:48:18;2.00;;;2.00;;
2896;SDS011;1458;49.728;9.228;2023-02-01T13:50:54;1.90;;;1.90;;
2896;SDS011;1458;49.728;9.228;2023-02-01T13:53:26;1.93;;;1.93;;
2896;SDS011;1458;49.728;9.228;2023-02-01T13:55:58;2.00;;;2.00;;
2896;SDS011;1458;49.728;9.228;2023-02-01T13:58:32;1.80;;;1.80;;
2896;SDS011;1458;49.728;9.228;2023-02-01T14:07:19;1.70;;;1.70;;
2896;SDS011;1458;49.728;9.228;2023-02-01T14:09:51;1.80;;;1.80;;
2896;SDS011;1458;49.728;9.228;2023-02-01T14:12:47;1.80;;;1.80;;
2896;SDS011;1458;49.728;9.228;2023-02-01T14:15:22;2.00;;;2.00;;
2896;SDS011;1458;49.728;9.228;2023-02-01T14:17:53;1.80;;;1.80;;
2896;SDS011;1458;49.728;9.228;2023-02-01T14:23:21;1.80;;;1.80;;
2896;SDS011;1458;49.728;9.228;2023-02-01T14:28:59;1.87;;;1.87;;
2896;SDS011;1458;49.728;9.228;2023-02-01T14:31:58;1.60;;;1.60;;
2896;SDS011;1458;49.728;9.228;2023-02-01T14:34:34;1.97;;;1.97;;
2896;SDS011;1458;49.728;9.228;2023-02-01T14:37:09;1.80;;;1.80;;
2896;SDS011;1458;49.728;9.228;2023-02-01T14:39:55;1.70;;;1.70;;
2896;SDS011;1458;49.728;9.228;2023-02-01T14:42:27;1.83;;;1.83;;
2896;SDS011;1458;49.728;9.228;2023-02-01T14:51:23;2.10;;;2.10;;
2896;SDS011;1458;49.728;9.228;2023-02-01T14:53:51;1.90;;;1.90;;
2896;SDS011;1458;49.728;9.228;2023-02-01T14:56:18;1.80;;;1.80;;
2896;SDS011;1458;49.728;9.228;2023-02-01T14:58:48;2.00;;;2.00;;
2896;SDS011;1458;49.728;9.228;2023-02-01T15:01:23;1.80;;;1.80;;
2896;SDS011;1458;49.728;9.228;2023-02-01T15:03:57;1.90;;;1.90;;
2896;SDS011;1458;49.728;9.228;2023-02-01T15:06:32;1.97;;;1.97;;
2896;SDS011;1458;49.728;9.228;2023-02-01T15:09:07;1.90;;;1.90;;
2896;SDS011;1458;49.728;9.228;2023-02-01T15:14:30;1.90;;;1.90;;
2896;SDS011;1458;49.728;9.228;2023-02-01T15:16:59;2.00;;;2.00;;
2896;SDS011;1458;49.728;9.228;2023-02-01T15:19:27;1.87;;;1.87;;
2896;SDS011;1458;49.728;9.228;2023-02-01T15:21:58;1.90;;;1.90;;
2896;SDS011;1458;49.728;9.228;2023-02-01T15:24:26;1.80;;;1.80;;
2896;SDS011;1458;49.728;9.228;2023-02-01T15:26:56;2.00;;;2.00;;
2896;SDS011;1458;49.728;9.228;2023-02-01T15:29:31;1.90;;;1.90;;
2896;SDS011;1458;49.728;9.228;2023-02-01T15:31:59;2.00;;;2.00;;
2896;SDS011;1458;49.728;9.228;2023-02-01T15:37:15;2.20;;;2.20;;
2896;SDS011;1458;49.728;9.228;2023-02-01T15:42:49;2.20;;;2.20;;
2896;SDS011;1458;49.728;9.228;2023-02-01T15:45:20;2.00;;;2.00;;
2896;SDS011;1458;49.728;9.228;2023-02-01T15:47:52;2.00;;;2.00;;
2896;SDS011;1458;49.728;9.228;2023-02-01T15:50:22;1.90;;;1.90;;
2896;SDS011;1458;49.728;9.228;2023-02-01T15:52:51;2.10;;;2.10;;
2896;SDS011;1458;49.728;9.228;2023-02-01T15:55:21;2.10;;;2.10;;
2896;SDS011;1458;49.728;9.228;2023-02-01T15:57:55;2.00;;;2.00;;
2896;SDS011;1458;49.728;9.228;2023-02-01T16:00:24;1.97;;;1.97;;
2896;SDS011;1458;49.728;9.228;2023-02-01T16:02:54;2.07;;;2.07;;
2896;SDS011;1458;49.728;9.228;2023-02-01T16:05:29;2.00;;;2.00;;
2896;SDS011;1458;49.728;9.228;2023-02-01T16:08:01;2.00;;;2.00;;
2896;SDS011;1458;49.728;9.228;2023-02-01T16:10:38;1.90;;;1.90;;
2896;SDS011;1458;49.728;9.228;2023-02-01T16:13:10;1.90;;;1.90;;
2896;SDS011;1458;49.728;9.228;2023-02-01T16:15:39;1.90;;;1.90;;
2896;SDS011;1458;49.728;9.228;2023-02-01T16:18:06;2.00;;;2.00;;
2896;SDS011;1458;49.728;9.228;2023-02-01T16:20:34;1.90;;;1.90;;
2896;SDS011;1458;49.728;9.228;2023-02-01T16:23:04;2.00;;;2.00;;
2896;SDS011;1458;49.728;9.228;2023-02-01T16:25:38;1.80;;;1.80;;
2896;SDS011;1458;49.728;9.228;2023-02-01T16:28:06;2.07;;;2.07;;
2896;SDS011;1458;49.728;9.228;2023-02-01T16:30:34;1.90;;;1.90;;
2896;SDS011;1458;49.728;9.228;2023-02-01T16:33:02;1.90;;;1.90;;
2896;SDS011;1458;49.728;9.228;2023-02-01T16:35:31;1.90;;;1.90;;
2896;SDS011;1458;49.728;9.228;2023-02-01T16:38:01;1.90;;;1.90;;
2896;SDS011;1458;49.728;9.228;2023-02-01T16:40:33;1.77;;;1.77;;
2896;SDS011;1458;49.728;9.228;2023-02-01T16:43:02;1.80;;;1.80;;
2896;SDS011;1458;49.728;9.228;2023-02-01T16:45:37;1.90;;;1.90;;
2896;SDS011;1458;49.728;9.228;2023-02-01T16:48:05;1.80;;;1.80;;
2896;SDS011;1458;49.728;9.228;2023-02-01T16:50:33;2.23;;;2.23;;
2896;SDS011;1458;49.728;9.228;2023-02-01T16:53:01;1.83;;;1.83;;
2896;SDS011;1458;49.728;9.228;2023-02-01T16:55:29;1.80;;;1.80;;
2896;SDS011;1458;49.728;9.228;2023-02-01T16:57:57;1.80;;;1.80;;
2896;SDS011;1458;49.728;9.228;2023-02-01T17:00:24;1.73;;;1.73;;
2896;SDS011;1458;49.728;9.228;2023-02-01T17:02:52;1.70;;;1.70;;